sensor_id;sensor_type;location;lat;lon;timestamp;pressure;altitude;pressure_sealevel;temperature;humidity
10618;BME280;5356;43.526;26.534;2024-02-14T00:02:16;98735.38;;;9.14;100.00
10618;BME280;5356;43.526;26.534;2024-02-14T00:04:42;98735.16;;;9.15;100.00
10618;BME280;5356;43.526;26.534;2024-02-14T00:07:07;98740.56;;;9.27;100.00
10618;BME280;5356;43.526;26.534;2024-02-14T00:09:33;98730.44;;;9.36;100.00
10618;BME280;5356;43.526;26.534;2024-02-14T00:11:58;98734.84;;;9.42;100.00
10618;BME280;5356;43.526;26.534;2024-02-14T00:14:24;98731.63;;;9.40;100.00
10618;BME280;5356;43.526;26.534;2024-02-14T00:16:49;98730.34;;;9.42;100.00
10618;BME280;5356;43.526;26.534;2024-02-14T00:19:16;98742.41;;;9.27;100.00
10618;BME280;5356;43.526;26.534;2024-02-14T00:21:41;98731.78;;;9.27;100.00
10618;BME280;5356;43.526;26.534;2024-02-14T00:24:07;98737.69;;;9.29;100.00
10618;BME280;5356;43.526;26.534;2024-02-14T00:26:32;98740.47;;;9.34;100.00
10618;BME280;5356;43.526;26.534;2024-02-14T00:28:58;98746.97;;;9.38;100.00
10618;BME280;5356;43.526;26.534;2024-02-14T00:31:24;98738.19;;;9.37;100.00
10618;BME280;5356;43.526;26.534;2024-02-14T00:33:49;98749.41;;;9.39;100.00
10618;BME280;5356;43.526;26.534;2024-02-14T00:36:16;98744.31;;;9.38;100.00
10618;BME280;5356;43.526;26.534;2024-02-14T00:38:41;98746.38;;;9.36;100.00
10618;BME280;5356;43.526;26.534;2024-02-14T00:41:07;98755.41;;;9.35;100.00
10618;BME280;5356;43.526;26.534;2024-02-14T00:43:32;98753.78;;;9.15;100.00
10618;BME280;5356;43.526;26.534;2024-02-14T00:45:58;98757.31;;;9.09;100.00
10618;BME280;5356;43.526;26.534;2024-02-14T00:48:23;98754.13;;;9.01;100.00
10618;BME280;5356;43.526;26.534;2024-02-14T00:50:48;98757.88;;;8.93;100.00
10618;BME280;5356;43.526;26.534;2024-02-14T00:53:14;98761.28;;;9.00;100.00
10618;BME280;5356;43.526;26.534;2024-02-14T00:55:39;98762.91;;;9.01;100.00
10618;BME280;5356;43.526;26.534;2024-02-14T00:58:05;98768.75;;;9.10;100.00
10618;BME280;5356;43.526;26.534;2024-02-14T01:00:30;98765.56;;;9.19;100.00
10618;BME280;5356;43.526;26.534;2024-02-14T01:02:57;98767.38;;;9.26;100.00
10618;BME280;5356;43.526;26.534;2024-02-14T01:05:23;98775.03;;;9.34;100.00
10618;BME280;5356;43.526;26.534;2024-02-14T01:07:48;98774.56;;;9.37;100.00
10618;BME280;5356;43.526;26.534;2024-02-14T01:10:14;98768.09;;;9.33;100.00
10618;BME280;5356;43.526;26.534;2024-02-14T01:12:39;98771.03;;;9.25;100.00
10618;BME280;5356;43.526;26.534;2024-02-14T01:15:06;98770.00;;;9.07;100.00
10618;BME280;5356;43.526;26.534;2024-02-14T01:17:31;98764.38;;;8.97;100.00
10618;BME280;5356;43.526;26.534;2024-02-14T01:19:57;98776.66;;;9.16;100.00
10618;BME280;5356;43.526;26.534;2024-02-14T01:22:24;98786.34;;;9.29;100.00
10618;BME280;5356;43.526;26.534;2024-02-14T01:24:49;98772.38;;;9.34;100.00
10618;BME280;5356;43.526;26.534;2024-02-14T01:27:15;98780.56;;;9.32;100.00
10618;BME280;5356;43.526;26.534;2024-02-14T01:29:41;98787.22;;;9.41;100.00
10618;BME280;5356;43.526;26.534;2024-02-14T01:32:07;98781.09;;;9.41;100.00
10618;BME280;5356;43.526;26.534;2024-02-14T01:34:34;98785.97;;;9.26;100.00
10618;BME280;5356;43.526;26.534;2024-02-14T01:37:00;98778.94;;;9.13;100.00
10618;BME280;5356;43.526;26.534;2024-02-14T01:39:26;98777.31;;;9.12;100.00
10618;BME280;5356;43.526;26.534;2024-02-14T01:41:51;98783.44;;;9.12;100.00
10618;BME280;5356;43.526;26.534;2024-02-14T01:44:18;98781.97;;;9.16;100.00
10618;BME280;5356;43.526;26.534;2024-02-14T01:46:46;98784.41;;;9.18;100.00
10618;BME280;5356;43.526;26.534;2024-02-14T01:49:12;98785.00;;;9.20;100.00
10618;BME280;5356;43.526;26.534;2024-02-14T01:51:39;98777.69;;;9.34;100.00
10618;BME280;5356;43.526;26.534;2024-02-14T01:54:07;98780.72;;;9.37;100.00
10618;BME280;5356;43.526;26.534;2024-02-14T01:56:34;98782.25;;;9.45;100.00
10618;BME280;5356;43.526;26.534;2024-02-14T01:59:00;98786.31;;;9.48;100.00
10618;BME280;5356;43.526;26.534;2024-02-14T02:01:26;98791.13;;;9.57;100.00
10618;BME280;5356;43.526;26.534;2024-02-14T02:03:52;98774.38;;;9.57;100.00
10618;BME280;5356;43.526;26.534;2024-02-14T02:06:17;98780.06;;;9.60;100.00
10618;BME280;5356;43.526;26.534;2024-02-14T02:08:44;98772.06;;;9.60;100.00
10618;BME280;5356;43.526;26.534;2024-02-14T02:11:09;98778.78;;;9.63;100.00
10618;BME280;5356;43.526;26.534;2024-02-14T02:13:35;98778.34;;;9.66;100.00
10618;BME280;5356;43.526;26.534;2024-02-14T02:16:02;98782.97;;;9.71;100.00
10618;BME280;5356;43.526;26.534;2024-02-14T02:18:30;98790.25;;;9.63;100.00
10618;BME280;5356;43.526;26.534;2024-02-14T02:20:56;98794.69;;;9.51;100.00
10618;BME280;5356;43.526;26.534;2024-02-14T02:23:21;98792.44;;;9.48;100.00
10618;BME280;5356;43.526;26.534;2024-02-14T02:25:47;98797.72;;;9.55;100.00
10618;BME280;5356;43.526;26.534;2024-02-14T02:28:13;98789.63;;;9.61;100.00
10618;BME280;5356;43.526;26.534;2024-02-14T02:30:39;98801.81;;;9.51;100.00
10618;BME280;5356;43.526;26.534;2024-02-14T02:33:05;98802.72;;;9.44;100.00
10618;BME280;5356;43.526;26.534;2024-02-14T02:35:31;98803.69;;;9.50;100.00
10618;BME280;5356;43.526;26.534;2024-02-14T02:37:56;98805.31;;;9.51;100.00
10618;BME280;5356;43.526;26.534;2024-02-14T02:40:23;98807.97;;;9.51;100.00
10618;BME280;5356;43.526;26.534;2024-02-14T02:42:48;98818.75;;;9.56;100.00
10618;BME280;5356;43.526;26.534;2024-02-14T02:45:15;98818.38;;;9.53;100.00
10618;BME280;5356;43.526;26.534;2024-02-14T02:47:41;98819.13;;;9.41;100.00
10618;BME280;5356;43.526;26.534;2024-02-14T02:50:06;98822.88;;;9.34;100.00
10618;BME280;5356;43.526;26.534;2024-02-14T02:52:33;98822.13;;;9.27;100.00
10618;BME280;5356;43.526;26.534;2024-02-14T02:54:59;98822.50;;;9.30;100.00
10618;BME280;5356;43.526;26.534;2024-02-14T02:57:26;98825.53;;;9.15;100.00
10618;BME280;5356;43.526;26.534;2024-02-14T02:59:52;98822.69;;;9.10;100.00
10618;BME280;5356;43.526;26.534;2024-02-14T03:02:19;98837.75;;;9.16;100.00
10618;BME280;5356;43.526;26.534;2024-02-14T03:04:46;98827.75;;;9.18;100.00
10618;BME280;5356;43.526;26.534;2024-02-14T03:07:12;98842.50;;;9.14;100.00
10618;BME280;5356;43.526;26.534;2024-02-14T03:09:38;98839.84;;;9.14;100.00
10618;BME280;5356;43.526;26.534;2024-02-14T03:12:03;98848.66;;;9.08;100.00
10618;BME280;5356;43.526;26.534;2024-02-14T03:14:32;98839.69;;;9.09;100.00
10618;BME280;5356;43.526;26.534;2024-02-14T03:17:04;98853.72;;;9.16;100.00
10618;BME280;5356;43.526;26.534;2024-02-14T03:19:30;98852.69;;;9.17;100.00
10618;BME280;5356;43.526;26.534;2024-02-14T03:21:56;98851.66;;;9.18;100.00
10618;BME280;5356;43.526;26.534;2024-02-14T03:24:23;98855.94;;;9.19;100.00
10618;BME280;5356;43.526;26.534;2024-02-14T03:26:51;98865.97;;;9.17;100.00
10618;BME280;5356;43.526;26.534;2024-02-14T03:29:16;98866.09;;;9.04;100.00
10618;BME280;5356;43.526;26.534;2024-02-14T03:31:42;98860.88;;;8.91;100.00
10618;BME280;5356;43.526;26.534;2024-02-14T03:34:09;98868.66;;;8.86;100.00
10618;BME280;5356;43.526;26.534;2024-02-14T03:36:37;98863.38;;;8.86;100.00
10618;BME280;5356;43.526;26.534;2024-02-14T03:39:03;98864.19;;;8.86;100.00
10618;BME280;5356;43.526;26.534;2024-02-14T03:41:29;98871.47;;;8.97;100.00
10618;BME280;5356;43.526;26.534;2024-02-14T03:43:55;98865.81;;;9.12;100.00
10618;BME280;5356;43.526;26.534;2024-02-14T03:46:23;98868.63;;;9.17;100.00
10618;BME280;5356;43.526;26.534;2024-02-14T03:48:49;98870.06;;;9.20;100.00
10618;BME280;5356;43.526;26.534;2024-02-14T03:51:15;98873.63;;;9.07;100.00
10618;BME280;5356;43.526;26.534;2024-02-14T03:53:41;98869.34;;;9.06;100.00
10618;BME280;5356;43.526;26.534;2024-02-14T03:56:07;98884.84;;;9.09;100.00
10618;BME280;5356;43.526;26.534;2024-02-14T03:58:33;98881.31;;;8.90;100.00
10618;BME280;5356;43.526;26.534;2024-02-14T04:01:02;98882.09;;;8.97;100.00
10618;BME280;5356;43.526;26.534;2024-02-14T04:03:28;98871.41;;;9.04;100.00
10618;BME280;5356;43.526;26.534;2024-02-14T04:05:54;98882.78;;;9.11;100.00
10618;BME280;5356;43.526;26.534;2024-02-14T04:08:19;98877.69;;;9.10;100.00
10618;BME280;5356;43.526;26.534;2024-02-14T04:10:45;98883.59;;;9.12;100.00
10618;BME280;5356;43.526;26.534;2024-02-14T04:13:11;98885.59;;;9.16;100.00
10618;BME280;5356;43.526;26.534;2024-02-14T04:15:36;98883.97;;;9.15;100.00
10618;BME280;5356;43.526;26.534;2024-02-14T04:18:02;98887.88;;;9.13;100.00
10618;BME280;5356;43.526;26.534;2024-02-14T04:20:29;98886.03;;;9.13;100.00
10618;BME280;5356;43.526;26.534;2024-02-14T04:22:55;98893.56;;;9.16;100.00
10618;BME280;5356;43.526;26.534;2024-02-14T04:25:21;98899.41;;;9.25;100.00
10618;BME280;5356;43.526;26.534;2024-02-14T04:27:48;98897.88;;;9.17;100.00
10618;BME280;5356;43.526;26.534;2024-02-14T04:30:13;98904.19;;;9.16;100.00
10618;BME280;5356;43.526;26.534;2024-02-14T04:32:39;98901.09;;;9.19;100.00
10618;BME280;5356;43.526;26.534;2024-02-14T04:35:04;98907.28;;;9.13;100.00
10618;BME280;5356;43.526;26.534;2024-02-14T04:37:30;98908.88;;;9.21;100.00
10618;BME280;5356;43.526;26.534;2024-02-14T04:39:55;98914.38;;;9.19;100.00
10618;BME280;5356;43.526;26.534;2024-02-14T04:42:21;98914.38;;;9.19;100.00
10618;BME280;5356;43.526;26.534;2024-02-14T04:44:46;98920.31;;;9.21;100.00
10618;BME280;5356;43.526;26.534;2024-02-14T04:47:12;98918.88;;;9.26;100.00
10618;BME280;5356;43.526;26.534;2024-02-14T04:49:37;98921.53;;;9.26;100.00
10618;BME280;5356;43.526;26.534;2024-02-14T04:52:04;98911.28;;;9.22;100.00
10618;BME280;5356;43.526;26.534;2024-02-14T04:54:29;98916.19;;;9.26;100.00
10618;BME280;5356;43.526;26.534;2024-02-14T04:56:55;98924.91;;;9.33;100.00
10618;BME280;5356;43.526;26.534;2024-02-14T04:59:20;98924.28;;;9.37;100.00
10618;BME280;5356;43.526;26.534;2024-02-14T05:01:46;98928.56;;;9.38;100.00
10618;BME280;5356;43.526;26.534;2024-02-14T05:04:11;98936.53;;;9.38;100.00
10618;BME280;5356;43.526;26.534;2024-02-14T05:06:38;98940.00;;;9.39;100.00
10618;BME280;5356;43.526;26.534;2024-02-14T05:09:04;98943.91;;;9.36;100.00
10618;BME280;5356;43.526;26.534;2024-02-14T05:11:30;98941.03;;;9.38;100.00
10618;BME280;5356;43.526;26.534;2024-02-14T05:13:55;98952.53;;;9.32;100.00
10618;BME280;5356;43.526;26.534;2024-02-14T05:16:21;98956.88;;;9.26;100.00
10618;BME280;5356;43.526;26.534;2024-02-14T05:18:47;98953.41;;;9.26;100.00
10618;BME280;5356;43.526;26.534;2024-02-14T05:21:13;98961.97;;;9.28;100.00
10618;BME280;5356;43.526;26.534;2024-02-14T05:23:39;98980.84;;;9.19;100.00
10618;BME280;5356;43.526;26.534;2024-02-14T05:26:06;98982.75;;;9.12;100.00
10618;BME280;5356;43.526;26.534;2024-02-14T05:28:32;98992.69;;;9.17;100.00
10618;BME280;5356;43.526;26.534;2024-02-14T05:30:59;98998.19;;;9.22;100.00
10618;BME280;5356;43.526;26.534;2024-02-14T05:33:25;98992.41;;;9.32;100.00
10618;BME280;5356;43.526;26.534;2024-02-14T05:35:51;98997.31;;;9.28;100.00
10618;BME280;5356;43.526;26.534;2024-02-14T05:38:17;99005.72;;;9.32;100.00
10618;BME280;5356;43.526;26.534;2024-02-14T05:40:45;99008.13;;;9.33;100.00
10618;BME280;5356;43.526;26.534;2024-02-14T05:43:11;99014.50;;;9.32;100.00
10618;BME280;5356;43.526;26.534;2024-02-14T05:45:36;99011.47;;;9.22;100.00
10618;BME280;5356;43.526;26.534;2024-02-14T05:48:02;99019.09;;;9.18;100.00
10618;BME280;5356;43.526;26.534;2024-02-14T05:50:28;99019.41;;;8.97;100.00
10618;BME280;5356;43.526;26.534;2024-02-14T05:52:54;99031.50;;;8.93;100.00
10618;BME280;5356;43.526;26.534;2024-02-14T05:55:19;99024.75;;;8.90;100.00
10618;BME280;5356;43.526;26.534;2024-02-14T05:57:45;99035.44;;;8.84;100.00
10618;BME280;5356;43.526;26.534;2024-02-14T06:00:10;99040.19;;;8.68;100.00
10618;BME280;5356;43.526;26.534;2024-02-14T06:02:38;99044.88;;;8.73;100.00
10618;BME280;5356;43.526;26.534;2024-02-14T06:05:05;99047.72;;;8.71;100.00
10618;BME280;5356;43.526;26.534;2024-02-14T06:07:35;99038.75;;;8.66;100.00
10618;BME280;5356;43.526;26.534;2024-02-14T06:10:01;99044.06;;;8.66;100.00
10618;BME280;5356;43.526;26.534;2024-02-14T06:12:26;99049.00;;;8.62;100.00
10618;BME280;5356;43.526;26.534;2024-02-14T06:14:52;99049.00;;;8.62;100.00
10618;BME280;5356;43.526;26.534;2024-02-14T06:17:17;99045.72;;;8.67;100.00
10618;BME280;5356;43.526;26.534;2024-02-14T06:19:42;99045.69;;;8.73;100.00
10618;BME280;5356;43.526;26.534;2024-02-14T06:22:09;99055.88;;;8.83;100.00
10618;BME280;5356;43.526;26.534;2024-02-14T06:24:36;99058.34;;;8.78;100.00
10618;BME280;5356;43.526;26.534;2024-02-14T06:27:01;99065.88;;;8.74;100.00
10618;BME280;5356;43.526;26.534;2024-02-14T06:29:27;99067.34;;;8.70;100.00
10618;BME280;5356;43.526;26.534;2024-02-14T06:31:52;99076.50;;;8.74;100.00
10618;BME280;5356;43.526;26.534;2024-02-14T06:34:19;99066.94;;;8.73;100.00
10618;BME280;5356;43.526;26.534;2024-02-14T06:36:46;99073.06;;;8.74;100.00
10618;BME280;5356;43.526;26.534;2024-02-14T06:39:12;99073.47;;;8.77;100.00
10618;BME280;5356;43.526;26.534;2024-02-14T06:41:37;99077.34;;;8.75;100.00
10618;BME280;5356;43.526;26.534;2024-02-14T06:44:04;99080.00;;;8.75;100.00
10618;BME280;5356;43.526;26.534;2024-02-14T06:46:30;99083.28;;;8.70;100.00
10618;BME280;5356;43.526;26.534;2024-02-14T06:48:56;99087.13;;;8.74;100.00
10618;BME280;5356;43.526;26.534;2024-02-14T06:51:22;99077.31;;;8.82;100.00
10618;BME280;5356;43.526;26.534;2024-02-14T06:53:49;99080.31;;;8.98;100.00
10618;BME280;5356;43.526;26.534;2024-02-14T06:56:14;99075.75;;;9.12;100.00
10618;BME280;5356;43.526;26.534;2024-02-14T06:58:40;99083.34;;;9.02;100.00
10618;BME280;5356;43.526;26.534;2024-02-14T07:01:05;99091.06;;;9.10;100.00
10618;BME280;5356;43.526;26.534;2024-02-14T07:03:31;99099.22;;;9.15;100.00
10618;BME280;5356;43.526;26.534;2024-02-14T07:05:57;99097.78;;;9.19;100.00
10618;BME280;5356;43.526;26.534;2024-02-14T07:08:22;99094.47;;;9.24;100.00
10618;BME280;5356;43.526;26.534;2024-02-14T07:10:49;99103.56;;;9.10;100.00
10618;BME280;5356;43.526;26.534;2024-02-14T07:13:14;99102.19;;;8.94;100.00
10618;BME280;5356;43.526;26.534;2024-02-14T07:15:39;99112.06;;;8.73;100.00
10618;BME280;5356;43.526;26.534;2024-02-14T07:18:05;99120.03;;;8.73;100.00
10618;BME280;5356;43.526;26.534;2024-02-14T07:20:33;99118.00;;;8.69;100.00
10618;BME280;5356;43.526;26.534;2024-02-14T07:22:59;99123.72;;;8.72;100.00
10618;BME280;5356;43.526;26.534;2024-02-14T07:25:24;99125.78;;;8.70;100.00
10618;BME280;5356;43.526;26.534;2024-02-14T07:27:49;99126.81;;;8.69;100.00
10618;BME280;5356;43.526;26.534;2024-02-14T07:30:16;99123.75;;;8.59;100.00
10618;BME280;5356;43.526;26.534;2024-02-14T07:32:43;99127.44;;;8.51;100.00
10618;BME280;5356;43.526;26.534;2024-02-14T07:35:08;99129.91;;;8.46;100.00
10618;BME280;5356;43.526;26.534;2024-02-14T07:37:34;99133.81;;;8.44;100.00
10618;BME280;5356;43.526;26.534;2024-02-14T07:39:59;99137.06;;;8.46;100.00
10618;BME280;5356;43.526;26.534;2024-02-14T07:42:25;99148.09;;;8.49;100.00
10618;BME280;5356;43.526;26.534;2024-02-14T07:44:50;99150.91;;;8.54;100.00
10618;BME280;5356;43.526;26.534;2024-02-14T07:47:16;99156.44;;;8.66;100.00
10618;BME280;5356;43.526;26.534;2024-02-14T07:49:41;99161.09;;;8.71;100.00
10618;BME280;5356;43.526;26.534;2024-02-14T07:52:06;99156.38;;;8.80;100.00
10618;BME280;5356;43.526;26.534;2024-02-14T07:54:32;99168.25;;;8.84;100.00
10618;BME280;5356;43.526;26.534;2024-02-14T07:56:58;99162.94;;;8.77;100.00
10618;BME280;5356;43.526;26.534;2024-02-14T07:59:23;99166.22;;;8.72;100.00
10618;BME280;5356;43.526;26.534;2024-02-14T08:01:49;99174.19;;;8.72;100.00
10618;BME280;5356;43.526;26.534;2024-02-14T08:04:14;99170.91;;;8.77;100.00
10618;BME280;5356;43.526;26.534;2024-02-14T08:06:40;99176.66;;;8.67;100.00
10618;BME280;5356;43.526;26.534;2024-02-14T08:09:06;99172.56;;;8.65;100.00
10618;BME280;5356;43.526;26.534;2024-02-14T08:11:35;99174.59;;;8.63;100.00
10618;BME280;5356;43.526;26.534;2024-02-14T08:14:01;99175.44;;;8.57;100.00
10618;BME280;5356;43.526;26.534;2024-02-14T08:16:26;99180.94;;;8.62;100.00
10618;BME280;5356;43.526;26.534;2024-02-14T08:18:52;99186.88;;;8.64;100.00
10618;BME280;5356;43.526;26.534;2024-02-14T08:21:24;99192.38;;;8.49;100.00
10618;BME280;5356;43.526;26.534;2024-02-14T08:23:51;99196.91;;;8.42;100.00
10618;BME280;5356;43.526;26.534;2024-02-14T08:26:17;99200.97;;;8.44;100.00
10618;BME280;5356;43.526;26.534;2024-02-14T08:28:42;99201.97;;;8.37;100.00
10618;BME280;5356;43.526;26.534;2024-02-14T08:31:11;99201.78;;;8.45;100.00
10618;BME280;5356;43.526;26.534;2024-02-14T08:33:37;99206.28;;;8.44;100.00
10618;BME280;5356;43.526;26.534;2024-02-14T08:36:06;99200.13;;;8.37;100.00
10618;BME280;5356;43.526;26.534;2024-02-14T08:38:32;99209.56;;;8.40;100.00
10618;BME280;5356;43.526;26.534;2024-02-14T08:40:58;99214.44;;;8.29;100.00
10618;BME280;5356;43.526;26.534;2024-02-14T08:43:23;99216.88;;;8.24;100.00
10618;BME280;5356;43.526;26.534;2024-02-14T08:45:54;99212.38;;;8.25;100.00
10618;BME280;5356;43.526;26.534;2024-02-14T08:48:19;99224.03;;;8.30;100.00
10618;BME280;5356;43.526;26.534;2024-02-14T08:50:45;99225.66;;;8.31;100.00
10618;BME280;5356;43.526;26.534;2024-02-14T08:53:12;99226.09;;;8.42;100.00
10618;BME280;5356;43.526;26.534;2024-02-14T08:55:42;99229.97;;;8.46;100.00
10618;BME280;5356;43.526;26.534;2024-02-14T08:58:07;99233.06;;;8.49;100.00
10618;BME280;5356;43.526;26.534;2024-02-14T09:00:38;99233.63;;;8.51;100.00
10618;BME280;5356;43.526;26.534;2024-02-14T09:03:05;99246.31;;;8.56;100.00
10618;BME280;5356;43.526;26.534;2024-02-14T09:05:30;99235.88;;;8.54;100.00
10618;BME280;5356;43.526;26.534;2024-02-14T09:07:56;99234.88;;;8.49;100.00
10618;BME280;5356;43.526;26.534;2024-02-14T09:10:22;99229.75;;;8.54;100.00
10618;BME280;5356;43.526;26.534;2024-02-14T09:12:48;99235.69;;;8.56;100.00
10618;BME280;5356;43.526;26.534;2024-02-14T09:15:13;99246.72;;;8.66;100.00
10618;BME280;5356;43.526;26.534;2024-02-14T09:17:39;99249.16;;;8.81;100.00
10618;BME280;5356;43.526;26.534;2024-02-14T09:20:07;99258.34;;;8.79;100.00
10618;BME280;5356;43.526;26.534;2024-02-14T09:22:37;99257.94;;;8.75;100.00
10618;BME280;5356;43.526;26.534;2024-02-14T09:25:03;99253.81;;;8.86;100.00
10618;BME280;5356;43.526;26.534;2024-02-14T09:27:31;99259.78;;;8.81;100.00
10618;BME280;5356;43.526;26.534;2024-02-14T09:29:58;99252.00;;;8.86;100.00
10618;BME280;5356;43.526;26.534;2024-02-14T09:32:23;99251.38;;;8.97;100.00
10618;BME280;5356;43.526;26.534;2024-02-14T09:34:49;99252.00;;;8.93;100.00
10618;BME280;5356;43.526;26.534;2024-02-14T09:37:14;99245.66;;;8.87;100.00
10618;BME280;5356;43.526;26.534;2024-02-14T09:39:39;99246.47;;;8.94;100.00
10618;BME280;5356;43.526;26.534;2024-02-14T09:42:09;99245.44;;;9.02;100.00
10618;BME280;5356;43.526;26.534;2024-02-14T09:44:37;99237.84;;;9.06;100.00
10618;BME280;5356;43.526;26.534;2024-02-14T09:47:05;99240.50;;;9.06;100.00
10618;BME280;5356;43.526;26.534;2024-02-14T09:49:31;99237.66;;;9.07;100.00
10618;BME280;5356;43.526;26.534;2024-02-14T09:51:57;99236.19;;;9.11;100.00
10618;BME280;5356;43.526;26.534;2024-02-14T09:54:24;99233.91;;;9.28;100.00
10618;BME280;5356;43.526;26.534;2024-02-14T09:56:51;99236.75;;;9.33;100.00
10618;BME280;5356;43.526;26.534;2024-02-14T09:59:19;99234.91;;;9.34;100.00
10618;BME280;5356;43.526;26.534;2024-02-14T10:01:46;99239.22;;;9.35;100.00
10618;BME280;5356;43.526;26.534;2024-02-14T10:04:13;99232.47;;;9.32;100.00
10618;BME280;5356;43.526;26.534;2024-02-14T10:06:38;99228.97;;;9.38;100.00
10618;BME280;5356;43.526;26.534;2024-02-14T10:09:04;99226.31;;;9.38;100.00
10618;BME280;5356;43.526;26.534;2024-02-14T10:11:31;99233.19;;;9.53;100.00
10618;BME280;5356;43.526;26.534;2024-02-14T10:13:57;99237.47;;;9.60;100.00
10618;BME280;5356;43.526;26.534;2024-02-14T10:16:27;99238.47;;;9.59;100.00
10618;BME280;5356;43.526;26.534;2024-02-14T10:18:52;99230.91;;;9.63;100.00
10618;BME280;5356;43.526;26.534;2024-02-14T10:21:18;99241.06;;;9.73;100.00
10618;BME280;5356;43.526;26.534;2024-02-14T10:23:44;99234.91;;;9.79;100.00
10618;BME280;5356;43.526;26.534;2024-02-14T10:26:13;99234.47;;;9.82;100.00
10618;BME280;5356;43.526;26.534;2024-02-14T10:28:42;99228.53;;;9.86;100.00
10618;BME280;5356;43.526;26.534;2024-02-14T10:31:07;99233.78;;;9.93;100.00
10618;BME280;5356;43.526;26.534;2024-02-14T10:33:34;99233.66;;;9.88;100.00
10618;BME280;5356;43.526;26.534;2024-02-14T10:36:00;99230.81;;;9.83;100.00
10618;BME280;5356;43.526;26.534;2024-02-14T10:38:31;99223.09;;;9.68;100.00
10618;BME280;5356;43.526;26.534;2024-02-14T10:40:59;99223.75;;;9.63;100.00
10618;BME280;5356;43.526;26.534;2024-02-14T10:43:25;99218.25;;;9.58;100.00
10618;BME280;5356;43.526;26.534;2024-02-14T10:45:53;99219.56;;;9.36;100.00
10618;BME280;5356;43.526;26.534;2024-02-14T10:48:22;99214.66;;;9.33;100.00
10618;BME280;5356;43.526;26.534;2024-02-14T10:50:53;99217.94;;;9.28;100.00
10618;BME280;5356;43.526;26.534;2024-02-14T10:53:19;99214.25;;;9.36;100.00
10618;BME280;5356;43.526;26.534;2024-02-14T10:55:47;99222.03;;;9.31;100.00
10618;BME280;5356;43.526;26.534;2024-02-14T10:58:14;99220.44;;;9.16;100.00
10618;BME280;5356;43.526;26.534;2024-02-14T11:00:45;99225.75;;;9.16;100.00
10618;BME280;5356;43.526;26.534;2024-02-14T11:03:12;99219.63;;;9.16;100.00
10618;BME280;5356;43.526;26.534;2024-02-14T11:05:45;99220.84;;;9.27;100.00
10618;BME280;5356;43.526;26.534;2024-02-14T11:08:14;99220.41;;;9.30;100.00
10618;BME280;5356;43.526;26.534;2024-02-14T11:10:39;99227.53;;;9.36;100.00
10618;BME280;5356;43.526;26.534;2024-02-14T11:13:10;99220.78;;;9.40;100.00
10618;BME280;5356;43.526;26.534;2024-02-14T11:15:37;99215.88;;;9.37;100.00
10618;BME280;5356;43.526;26.534;2024-02-14T11:18:06;99218.75;;;9.35;100.00
10618;BME280;5356;43.526;26.534;2024-02-14T11:20:35;99222.41;;;9.41;100.00
10618;BME280;5356;43.526;26.534;2024-02-14T11:23:04;99221.19;;;9.37;100.00
10618;BME280;5356;43.526;26.534;2024-02-14T11:25:33;99210.59;;;9.30;100.00
10618;BME280;5356;43.526;26.534;2024-02-14T11:28:15;99210.97;;;9.34;100.00
10618;BME280;5356;43.526;26.534;2024-02-14T11:30:42;99214.25;;;9.36;100.00
10618;BME280;5356;43.526;26.534;2024-02-14T11:35:45;99211.75;;;9.48;100.00
10618;BME280;5356;43.526;26.534;2024-02-14T11:38:10;99217.09;;;9.41;100.00
10618;BME280;5356;43.526;26.534;2024-02-14T11:40:36;99209.13;;;9.41;100.00
10618;BME280;5356;43.526;26.534;2024-02-14T11:43:05;99210.94;;;9.47;100.00
10618;BME280;5356;43.526;26.534;2024-02-14T11:45:35;99206.84;;;9.44;100.00
10618;BME280;5356;43.526;26.534;2024-02-14T11:48:02;99207.66;;;9.52;100.00
10618;BME280;5356;43.526;26.534;2024-02-14T11:50:27;99212.53;;;9.48;100.00
10618;BME280;5356;43.526;26.534;2024-02-14T11:52:54;99210.50;;;9.50;100.00
10618;BME280;5356;43.526;26.534;2024-02-14T11:55:27;99205.41;;;9.49;100.00
10618;BME280;5356;43.526;26.534;2024-02-14T11:57:53;99208.03;;;9.55;100.00
10618;BME280;5356;43.526;26.534;2024-02-14T12:00:18;99203.88;;;9.66;100.00
10618;BME280;5356;43.526;26.534;2024-02-14T12:02:44;99211.28;;;9.57;100.00
10618;BME280;5356;43.526;26.534;2024-02-14T12:05:10;99216.94;;;9.67;100.00
10618;BME280;5356;43.526;26.534;2024-02-14T12:07:35;99204.69;;;9.66;100.00
10618;BME280;5356;43.526;26.534;2024-02-14T12:10:01;99212.44;;;9.75;100.00
10618;BME280;5356;43.526;26.534;2024-02-14T12:12:27;99206.72;;;9.71;100.00
10618;BME280;5356;43.526;26.534;2024-02-14T12:14:53;99207.06;;;9.81;100.00
10618;BME280;5356;43.526;26.534;2024-02-14T12:17:18;99213.63;;;9.79;100.00
10618;BME280;5356;43.526;26.534;2024-02-14T12:19:44;99212.75;;;9.85;100.00
10618;BME280;5356;43.526;26.534;2024-02-14T12:22:10;99208.47;;;9.84;100.00
10618;BME280;5356;43.526;26.534;2024-02-14T12:24:44;99204.00;;;9.78;100.00
10618;BME280;5356;43.526;26.534;2024-02-14T12:27:10;99213.03;;;9.77;100.00
10618;BME280;5356;43.526;26.534;2024-02-14T12:29:35;99214.03;;;9.76;100.00
10618;BME280;5356;43.526;26.534;2024-02-14T12:32:08;99212.00;;;9.78;100.00
10618;BME280;5356;43.526;26.534;2024-02-14T12:34:34;99209.94;;;9.80;100.00
10618;BME280;5356;43.526;26.534;2024-02-14T12:36:59;99210.75;;;9.80;100.00
10618;BME280;5356;43.526;26.534;2024-02-14T12:39:26;99211.19;;;9.77;100.00
10618;BME280;5356;43.526;26.534;2024-02-14T12:41:52;99212.75;;;9.85;100.00
10618;BME280;5356;43.526;26.534;2024-02-14T12:44:18;99217.31;;;9.78;100.00
10618;BME280;5356;43.526;26.534;2024-02-14T12:46:43;99218.06;;;9.85;100.00
10618;BME280;5356;43.526;26.534;2024-02-14T12:49:09;99214.22;;;9.81;100.00
10618;BME280;5356;43.526;26.534;2024-02-14T12:51:35;99223.03;;;9.81;100.00
10618;BME280;5356;43.526;26.534;2024-02-14T12:54:01;99226.75;;;9.74;100.00
10618;BME280;5356;43.526;26.534;2024-02-14T12:56:27;99236.22;;;9.63;100.00
10618;BME280;5356;43.526;26.534;2024-02-14T12:58:52;99235.66;;;9.48;100.00